Portada
METAR-TAF:

METAR-TAF

Aeropuertos :

Aeropuerto de Florencia

Florencia, Italia

latitud: 43-48N, longitud: 011-12E, altitud: 40 m

Observación

El informe se hizo hace 35 minutos, a las 21:20 UTC
Viento 4 kt del sur
Temperatura 19°C
Humedad 78%
Presión 1018 hPa
Visibilidad 10 km o más
Cielo nuboso a una altura de 3000 ft

METAR: LIRQ 232120Z 17004KT 9999 BKN030 19/15 Q1018

Hora: 23:55 (21:55 UTC)

Pronóstico

El informe se hizo hace 4 horas y 55 minutos, a las 17:00 UTC
Pronóstico válido del 23 a las 18 UTC al 24 a las 18 UTC
Viento 5 kt con dirección variable
Visibilidad 10 km o más
Cielo nuboso a una altura de 4000 ft
Temporalmente
del 24 a las 00 UTC al 24 a las 12 UTC
Visibilidad: 4000 m
tormenta, lluvia

TAF: LIRQ 231700Z 2318/2418 VRB05KT 9999 BKN040 TEMPO 2400/2412 4000 TSRA

Observaciones y pronósticos meteorológicos de más de 4000 aeropuertos (mensajes METAR y TAF).

Los puntos amarillos y rojos representan las estaciones disponibles.

Ponga el ratón en el punto deseado para ver el nombre de la estación.

Haga clic para ver las observaciones y los pronósticos meteorológicos.

Para cambiar el mapa : haga clic en los botones verdes con una cruz de color negro para hacer un zoom, en el botón verde con un guión para alejar o en las flechas verdes para mapas adyacentes.


METAR-TAF: